Time;durP1;ratioP1;P1;durP2;ratioP2;P2;SDS_P1;SDS_P2;PMS_P1;PMS_P2;Temp;Humidity;BMP_temperature;BMP_pressure;BME280_temperature;BME280_humidity;BME280_pressure;Samples;Min_cycle;Max_cycle;Signal;HPM_P1;HPM_P2
2022/01/05 00:01:59;;;;;;;;;;;22.90;56.20;;;;;;5079547;28;1000;-36
2022/01/05 00:04:26;;;;;;;;;;;22.90;56.20;;;;;;5079203;28;1055;-37
2022/01/05 00:06:54;;;;;;;;;;;22.90;56.10;;;;;;5079304;28;1009;-36
2022/01/05 00:09:20;;;;;;;;;;;22.90;56.00;;;;;;5078622;28;1021;-38
2022/01/05 00:11:47;;;;;;;;;;;22.80;55.80;;;;;;5078633;28;1021;-37
2022/01/05 00:14:14;;;;;;;;;;;22.90;55.90;;;;;;5078089;28;1905;-37
2022/01/05 00:16:41;;;;;;;;;;;22.90;55.90;;;;;;5078839;28;1004;-36
2022/01/05 00:19:07;;;;;;;;;;;22.80;55.90;;;;;;5078967;28;1055;-36
2022/01/05 00:21:34;;;;;;;;;;;22.80;55.80;;;;;;5078829;28;1100;-37
2022/01/05 00:24:02;;;;;;;;;;;22.80;55.90;;;;;;5078438;28;1003;-37
2022/01/05 00:26:29;;;;;;;;;;;22.80;55.90;;;;;;5079332;28;1267;-37
2022/01/05 00:28:56;;;;;;;;;;;22.90;55.90;;;;;;5078507;28;965;-37
2022/01/05 00:31:23;;;;;;;;;;;22.80;55.90;;;;;;5078048;28;1823;-37
2022/01/05 00:33:50;;;;;;;;;;;22.80;55.80;;;;;;5078914;28;1905;-37
2022/01/05 00:36:17;;;;;;;;;;;22.80;55.80;;;;;;5078990;28;989;-37
2022/01/05 00:38:45;;;;;;;;;;;22.80;55.80;;;;;;5078705;28;977;-36
2022/01/05 00:41:13;;;;;;;;;;;22.80;55.70;;;;;;5078811;28;970;-37
2022/01/05 00:43:40;;;;;;;;;;;22.80;55.70;;;;;;5078378;28;1004;-37
2022/01/05 00:46:07;;;;;;;;;;;22.80;55.70;;;;;;5078665;28;1356;-37
2022/01/05 00:48:34;;;;;;;;;;;22.80;55.80;;;;;;5078650;28;997;-37
2022/01/05 00:51:02;;;;;;;;;;;22.80;55.80;;;;;;5078541;28;1033;-37
2022/01/05 00:53:29;;;;;;;;;;;22.80;55.60;;;;;;5078219;28;1901;-36
2022/01/05 00:55:56;;;;;;;;;;;22.80;55.60;;;;;;5078213;28;1022;-38
2022/01/05 00:58:24;;;;;;;;;;;22.70;55.60;;;;;;5078220;28;1004;-38
2022/01/05 01:00:50;;;;;;;;;;;22.80;55.70;;;;;;5077663;28;982;-38
2022/01/05 01:03:17;;;;;;;;;;;22.80;55.80;;;;;;5078808;28;943;-37
2022/01/05 01:05:44;;;;;;;;;;;22.80;55.80;;;;;;5078140;28;1113;-37
2022/01/05 01:08:11;;;;;;;;;;;22.80;55.80;;;;;;5078195;28;1063;-37
2022/01/05 01:10:38;;;;;;;;;;;22.70;55.80;;;;;;5078354;28;1225;-36
2022/01/05 01:13:05;;;;;;;;;;;22.80;55.90;;;;;;5077788;28;1991;-36
2022/01/05 01:15:34;;;;;;;;;;;22.80;55.80;;;;;;5078736;28;1002;-37
2022/01/05 01:18:00;;;;;;;;;;;22.70;55.80;;;;;;5078346;28;945;-38
2022/01/05 01:20:27;;;;;;;;;;;22.70;55.80;;;;;;5078022;28;1070;-38
2022/01/05 01:22:54;;;;;;;;;;;22.70;55.70;;;;;;5077850;28;1010;-37
2022/01/05 01:25:21;;;;;;;;;;;22.70;55.80;;;;;;5077525;28;959;-38
2022/01/05 01:27:47;;;;;;;;;;;22.70;55.70;;;;;;5076882;28;1080;-37
2022/01/05 01:30:14;;;;;;;;;;;22.70;55.70;;;;;;5078035;28;989;-37
2022/01/05 01:32:43;;;;;;;;;;;22.70;55.70;;;;;;5077394;28;886;-38
2022/01/05 01:35:09;;;;;;;;;;;22.70;55.70;;;;;;5077172;28;1906;-38
2022/01/05 01:37:36;;;;;;;;;;;22.70;55.80;;;;;;5077478;28;1058;-37
2022/01/05 01:40:04;;;;;;;;;;;22.70;55.80;;;;;;5077875;28;980;-38
2022/01/05 01:42:30;;;;;;;;;;;22.70;55.80;;;;;;5077860;28;904;-39
2022/01/05 01:44:57;;;;;;;;;;;22.60;55.80;;;;;;5077099;28;1033;-37
2022/01/05 01:47:24;;;;;;;;;;;22.60;55.80;;;;;;5077002;28;997;-38
2022/01/05 01:49:52;;;;;;;;;;;22.70;55.70;;;;;;5077132;28;993;-37
2022/01/05 01:52:19;;;;;;;;;;;22.60;55.70;;;;;;5077421;28;1004;-37
2022/01/05 01:54:46;;;;;;;;;;;22.60;55.70;;;;;;5078066;28;1976;-36
2022/01/05 01:57:13;;;;;;;;;;;22.60;55.70;;;;;;5077798;28;1863;-37
2022/01/05 01:59:40;;;;;;;;;;;22.60;55.70;;;;;;5077483;28;952;-37
2022/01/05 02:02:08;;;;;;;;;;;22.70;55.70;;;;;;5077805;28;985;-37
2022/01/05 02:04:35;;;;;;;;;;;22.60;55.60;;;;;;5077664;28;984;-37
2022/01/05 02:07:04;;;;;;;;;;;22.60;55.70;;;;;;5077004;28;1052;-37
2022/01/05 02:09:31;;;;;;;;;;;22.60;55.60;;;;;;5077529;28;1016;-36
2022/01/05 02:11:58;;;;;;;;;;;22.60;55.60;;;;;;5077652;28;1004;-37
2022/01/05 02:14:25;;;;;;;;;;;22.60;55.70;;;;;;5077263;28;1925;-38
2022/01/05 02:16:52;;;;;;;;;;;22.60;55.60;;;;;;5077215;28;938;-37
2022/01/05 02:19:18;;;;;;;;;;;22.60;55.60;;;;;;5077599;28;915;-36
2022/01/05 02:21:46;;;;;;;;;;;22.60;55.60;;;;;;5077681;28;974;-37
2022/01/05 02:24:13;;;;;;;;;;;22.60;55.60;;;;;;5077192;28;977;-37
2022/01/05 02:26:41;;;;;;;;;;;22.60;56.60;;;;;;5078003;28;932;-37
2022/01/05 02:29:08;;;;;;;;;;;22.50;55.40;;;;;;5077127;28;1023;-37
2022/01/05 02:31:35;;;;;;;;;;;22.50;55.50;;;;;;5077360;28;990;-36
2022/01/05 02:34:02;;;;;;;;;;;22.60;55.50;;;;;;5077391;28;1977;-37
2022/01/05 02:36:29;;;;;;;;;;;22.50;55.40;;;;;;5078242;28;1010;-36
2022/01/05 02:38:57;;;;;;;;;;;22.50;55.40;;;;;;5080154;28;959;-36
2022/01/05 02:41:23;;;;;;;;;;;22.50;55.40;;;;;;5080920;28;968;-37
2022/01/05 02:43:50;;;;;;;;;;;22.50;55.50;;;;;;5081146;28;1055;-37
2022/01/05 02:46:18;;;;;;;;;;;22.50;55.40;;;;;;5081481;28;985;-37
2022/01/05 02:48:46;;;;;;;;;;;22.50;55.40;;;;;;5080878;28;1001;-38
2022/01/05 02:51:12;;;;;;;;;;;22.60;55.40;;;;;;5081162;28;1007;-37
2022/01/05 02:53:40;;;;;;;;;;;22.60;55.20;;;;;;5080949;28;1983;-37
2022/01/05 02:56:08;;;;;;;;;;;22.50;55.10;;;;;;5080456;28;1020;-37
2022/01/05 02:58:35;;;;;;;;;;;22.60;55.10;;;;;;5081061;28;1001;-36
2022/01/05 03:01:02;;;;;;;;;;;22.60;55.00;;;;;;5081109;28;1119;-36
2022/01/05 03:03:29;;;;;;;;;;;22.60;54.90;;;;;;5081167;28;937;-36
2022/01/05 03:05:55;;;;;;;;;;;22.60;54.80;;;;;;5081067;28;977;-36
2022/01/05 03:08:22;;;;;;;;;;;22.70;54.50;;;;;;5080767;28;1076;-36
2022/01/05 03:10:49;;;;;;;;;;;22.70;54.50;;;;;;5080235;28;1017;-37
2022/01/05 03:13:17;;;;;;;;;;;22.80;54.50;;;;;;5080660;28;951;-36
2022/01/05 03:15:44;;;;;;;;;;;22.70;55.50;;;;;;5080697;28;1902;-36
2022/01/05 03:18:11;;;;;;;;;;;22.70;54.40;;;;;;5080500;28;949;-36
2022/01/05 03:20:39;;;;;;;;;;;22.70;54.50;;;;;;5080302;28;1309;-36
2022/01/05 03:23:05;;;;;;;;;;;22.70;54.50;;;;;;5080748;28;936;-36
2022/01/05 03:25:33;;;;;;;;;;;22.80;54.40;;;;;;5080302;28;933;-38
2022/01/05 03:27:59;;;;;;;;;;;22.70;54.30;;;;;;5080529;28;1038;-36
2022/01/05 03:30:29;;;;;;;;;;;22.70;54.40;;;;;;5080215;28;1004;-36
2022/01/05 03:33:12;;;;;;;;;;;22.60;54.50;;;;;;5080756;28;940;-36
2022/01/05 03:38:42;;;;;;;;;;;22.60;55.00;;;;;;5080012;28;675;-37
2022/01/05 03:41:09;;;;;;;;;;;22.70;54.30;;;;;;5079963;28;1006;-37
2022/01/05 03:43:36;;;;;;;;;;;22.70;54.20;;;;;;5080128;28;1001;-36
2022/01/05 03:46:04;;;;;;;;;;;22.60;54.40;;;;;;5080238;28;982;-37
2022/01/05 03:48:31;;;;;;;;;;;22.60;54.40;;;;;;5079363;28;994;-37
2022/01/05 03:50:58;;;;;;;;;;;22.60;54.50;;;;;;5079140;28;973;-36
2022/01/05 03:53:24;;;;;;;;;;;22.60;54.50;;;;;;5080142;28;1024;-36
2022/01/05 03:55:51;;;;;;;;;;;22.60;54.70;;;;;;5079871;28;1905;-37
2022/01/05 03:58:18;;;;;;;;;;;22.60;54.60;;;;;;5079960;28;936;-37
2022/01/05 04:00:46;;;;;;;;;;;22.60;54.60;;;;;;5079874;28;990;-36
2022/01/05 04:03:14;;;;;;;;;;;22.60;54.60;;;;;;5079998;28;947;-35
2022/01/05 04:05:42;;;;;;;;;;;22.60;54.50;;;;;;5079199;28;924;-36
2022/01/05 04:08:08;;;;;;;;;;;22.60;54.50;;;;;;5079542;28;1281;-37
2022/01/05 04:10:35;;;;;;;;;;;22.50;54.40;;;;;;5079129;28;926;-37
2022/01/05 04:13:02;;;;;;;;;;;22.50;54.50;;;;;;5079640;28;988;-36
2022/01/05 04:15:29;;;;;;;;;;;22.50;54.50;;;;;;5079147;28;1977;-36
2022/01/05 04:17:56;;;;;;;;;;;22.50;54.60;;;;;;5079676;28;995;-36
2022/01/05 04:20:24;;;;;;;;;;;22.50;54.50;;;;;;5079408;28;938;-37
2022/01/05 04:22:51;;;;;;;;;;;22.50;54.50;;;;;;5078621;28;1015;-37
2022/01/05 04:25:18;;;;;;;;;;;22.50;54.50;;;;;;5079777;28;983;-36
2022/01/05 04:27:45;;;;;;;;;;;22.50;54.50;;;;;;5079231;28;1017;-36
2022/01/05 04:30:12;;;;;;;;;;;22.50;54.50;;;;;;5079483;28;1100;-36
2022/01/05 04:32:39;;;;;;;;;;;22.40;54.40;;;;;;5078699;28;1044;-36
2022/01/05 04:35:06;;;;;;;;;;;22.40;54.40;;;;;;5079233;28;1902;-37
2022/01/05 04:37:34;;;;;;;;;;;22.40;54.40;;;;;;5078783;28;985;-37
2022/01/05 04:40:01;;;;;;;;;;;22.50;54.50;;;;;;5077970;28;944;-36
2022/01/05 04:42:28;;;;;;;;;;;22.40;54.60;;;;;;5078209;28;949;-37
2022/01/05 04:44:55;;;;;;;;;;;22.40;54.60;;;;;;5077891;28;968;-36
2022/01/05 04:47:22;;;;;;;;;;;22.40;54.80;;;;;;5078716;28;954;-37
2022/01/05 04:49:49;;;;;;;;;;;22.40;55.00;;;;;;5078685;28;936;-37
2022/01/05 04:52:15;;;;;;;;;;;22.40;54.80;;;;;;5079109;28;1009;-37
2022/01/05 04:54:46;;;;;;;;;;;22.50;54.70;;;;;;5078056;28;1977;-38
2022/01/05 04:57:13;;;;;;;;;;;22.50;54.60;;;;;;5078581;28;1078;-37
2022/01/05 04:59:39;;;;;;;;;;;22.60;54.60;;;;;;5078311;28;1786;-36
2022/01/05 05:02:06;;;;;;;;;;;22.50;54.40;;;;;;5078252;28;978;-36
2022/01/05 05:04:32;;;;;;;;;;;22.60;54.50;;;;;;5078293;28;1009;-36
2022/01/05 05:06:59;;;;;;;;;;;22.60;54.40;;;;;;5078325;28;1277;-36
2022/01/05 05:09:26;;;;;;;;;;;22.60;54.40;;;;;;5077760;28;1043;-37
2022/01/05 05:11:54;;;;;;;;;;;22.60;54.30;;;;;;5078264;28;952;-37
2022/01/05 05:14:21;;;;;;;;;;;22.60;54.40;;;;;;5077467;28;1843;-37
2022/01/05 05:16:47;;;;;;;;;;;22.60;54.30;;;;;;5077537;28;946;-36
2022/01/05 05:19:14;;;;;;;;;;;22.60;54.30;;;;;;5078103;28;1415;-38
2022/01/05 05:21:41;;;;;;;;;;;22.60;54.20;;;;;;5077872;28;921;-37
2022/01/05 05:24:10;;;;;;;;;;;22.60;54.20;;;;;;5078046;28;922;-36
2022/01/05 05:26:36;;;;;;;;;;;22.60;54.20;;;;;;5076783;28;1023;-36
2022/01/05 05:29:04;;;;;;;;;;;22.60;54.10;;;;;;5077739;28;949;-36
2022/01/05 05:31:31;;;;;;;;;;;22.60;54.10;;;;;;5078110;28;1490;-37
2022/01/05 05:33:58;;;;;;;;;;;22.60;54.10;;;;;;5077632;28;949;-39
2022/01/05 05:36:25;;;;;;;;;;;22.60;54.10;;;;;;5077536;28;1906;-37
2022/01/05 05:38:51;;;;;;;;;;;22.60;54.10;;;;;;5077961;28;995;-37
2022/01/05 05:41:18;;;;;;;;;;;22.60;54.10;;;;;;5076988;28;1074;-37
2022/01/05 05:43:48;;;;;;;;;;;22.60;54.10;;;;;;5077921;28;1040;-37
2022/01/05 05:46:16;;;;;;;;;;;22.50;54.10;;;;;;5076822;28;1067;-37
2022/01/05 05:48:42;;;;;;;;;;;22.60;54.20;;;;;;5077692;28;956;-36
2022/01/05 05:51:09;;;;;;;;;;;22.60;54.00;;;;;;5078202;28;999;-37
2022/01/05 05:53:36;;;;;;;;;;;22.50;54.00;;;;;;5076710;28;953;-37
2022/01/05 05:56:03;;;;;;;;;;;22.60;54.20;;;;;;5077485;28;1906;-36
2022/01/05 05:58:30;;;;;;;;;;;22.60;54.10;;;;;;5077550;28;929;-36
2022/01/05 06:00:57;;;;;;;;;;;22.50;54.00;;;;;;5077757;28;924;-36
2022/01/05 06:03:25;;;;;;;;;;;22.50;54.00;;;;;;5077364;28;1047;-35
2022/01/05 06:05:52;;;;;;;;;;;22.50;54.20;;;;;;5077399;28;1048;-37
2022/01/05 06:08:19;;;;;;;;;;;22.50;54.10;;;;;;5076727;28;1229;-36
2022/01/05 06:10:45;;;;;;;;;;;22.50;54.20;;;;;;5077183;28;926;-36
2022/01/05 06:13:12;;;;;;;;;;;22.50;54.10;;;;;;5079048;28;1041;-35
2022/01/05 06:15:39;;;;;;;;;;;22.70;54.10;;;;;;5081013;28;1971;-34
2022/01/05 06:18:06;;;;;;;;;;;22.60;54.10;;;;;;5081613;28;1043;-34
2022/01/05 06:20:34;;;;;;;;;;;22.60;54.10;;;;;;5081975;28;905;-34
2022/01/05 06:23:01;;;;;;;;;;;22.60;54.20;;;;;;5081098;28;945;-34
2022/01/05 06:25:27;;;;;;;;;;;22.60;54.20;;;;;;5081821;28;985;-34
2022/01/05 06:27:54;;;;;;;;;;;22.60;54.10;;;;;;5081164;28;1881;-34
2022/01/05 06:30:21;;;;;;;;;;;22.60;54.20;;;;;;5080240;28;1047;-35
2022/01/05 06:32:47;;;;;;;;;;;22.70;54.20;;;;;;5079864;28;1020;-35
2022/01/05 06:35:15;;;;;;;;;;;22.80;53.90;;;;;;5079878;28;1905;-38
2022/01/05 06:37:44;;;;;;;;;;;22.70;54.10;;;;;;5080521;28;925;-38
2022/01/05 06:40:11;;;;;;;;;;;22.60;54.10;;;;;;5080146;28;995;-38
2022/01/05 06:42:38;;;;;;;;;;;22.60;54.10;;;;;;5080040;28;855;-38
2022/01/05 06:45:06;;;;;;;;;;;22.60;54.00;;;;;;5079565;28;967;-37
2022/01/05 06:47:32;;;;;;;;;;;22.60;54.10;;;;;;5080191;28;982;-37
2022/01/05 06:49:59;;;;;;;;;;;22.60;53.90;;;;;;5080911;28;1021;-39
2022/01/05 06:52:26;;;;;;;;;;;22.60;54.00;;;;;;5080515;28;934;-38
2022/01/05 06:54:54;;;;;;;;;;;22.60;53.90;;;;;;5079836;28;1982;-38
2022/01/05 06:57:21;;;;;;;;;;;22.50;53.90;;;;;;5080179;28;944;-38
2022/01/05 06:59:47;;;;;;;;;;;22.60;53.90;;;;;;5079880;28;2296;-37
2022/01/05 07:02:14;;;;;;;;;;;22.50;53.70;;;;;;5080539;28;1014;-38
2022/01/05 07:04:41;;;;;;;;;;;22.50;53.60;;;;;;5080110;28;1463;-37
2022/01/05 07:07:08;;;;;;;;;;;22.50;54.80;;;;;;5078396;28;1160;-37
2022/01/05 07:09:34;;;;;;;;;;;22.50;53.50;;;;;;5079231;28;945;-37
2022/01/05 07:12:03;;;;;;;;;;;22.50;53.60;;;;;;5079995;28;1000;-38
2022/01/05 07:14:29;;;;;;;;;;;22.50;53.60;;;;;;5079579;28;985;-37
2022/01/05 07:16:56;;;;;;;;;;;22.40;53.50;;;;;;5079624;28;1983;-39
2022/01/05 07:19:23;;;;;;;;;;;22.40;53.50;;;;;;5079875;28;976;-36
2022/01/05 07:21:50;;;;;;;;;;;22.50;53.60;;;;;;5079983;28;925;-39
2022/01/05 07:24:19;;;;;;;;;;;22.40;53.50;;;;;;5079052;28;1102;-38
2022/01/05 07:26:46;;;;;;;;;;;22.40;53.50;;;;;;5079158;28;1006;-37
2022/01/05 07:29:15;;;;;;;;;;;22.40;53.40;;;;;;5078731;28;993;-39
2022/01/05 07:31:42;;;;;;;;;;;22.40;53.30;;;;;;5079343;28;941;-37
2022/01/05 07:34:09;;;;;;;;;;;22.40;53.20;;;;;;5079104;28;993;-38
2022/01/05 07:36:36;;;;;;;;;;;22.40;53.20;;;;;;5079281;28;1981;-39
2022/01/05 07:39:04;;;;;;;;;;;22.40;53.20;;;;;;5079332;28;1104;-38
2022/01/05 07:41:31;;;;;;;;;;;22.40;53.20;;;;;;5079554;28;1097;-38
2022/01/05 07:43:58;;;;;;;;;;;22.40;53.20;;;;;;5078942;28;1003;-37
2022/01/05 07:46:26;;;;;;;;;;;22.40;53.10;;;;;;5079348;28;1006;-38
2022/01/05 07:48:53;;;;;;;;;;;22.40;53.10;;;;;;5078434;28;1103;-37
2022/01/05 07:51:20;;;;;;;;;;;22.40;53.10;;;;;;5077706;28;951;-38
2022/01/05 07:53:47;;;;;;;;;;;22.30;53.00;;;;;;5078970;28;946;-38
2022/01/05 07:56:13;;;;;;;;;;;22.40;52.80;;;;;;5078312;28;1899;-41
2022/01/05 07:58:41;;;;;;;;;;;22.30;52.90;;;;;;5079067;28;984;-38
2022/01/05 08:01:07;;;;;;;;;;;22.40;52.80;;;;;;5079401;28;1004;-40
2022/01/05 08:03:37;;;;;;;;;;;22.40;52.70;;;;;;5077972;28;843;-38
2022/01/05 08:06:04;;;;;;;;;;;22.30;52.70;;;;;;5078328;28;1004;-36
2022/01/05 08:08:31;;;;;;;;;;;22.40;52.60;;;;;;5077744;28;1312;-37
2022/01/05 08:10:58;;;;;;;;;;;22.40;52.70;;;;;;5078708;28;990;-37
2022/01/05 08:13:25;;;;;;;;;;;22.30;52.70;;;;;;5078505;28;941;-37
2022/01/05 08:15:52;;;;;;;;;;;22.30;52.70;;;;;;5077808;28;1906;-37
2022/01/05 08:18:19;;;;;;;;;;;22.30;53.60;;;;;;5077800;28;985;-36
2022/01/05 08:20:47;;;;;;;;;;;22.30;52.50;;;;;;5078516;28;953;-37
2022/01/05 08:23:15;;;;;;;;;;;22.30;52.60;;;;;;5063540;28;1586;-36
2022/01/05 08:25:42;;;;;;;;;;;22.30;52.60;;;;;;5058843;28;1009;-35
2022/01/05 08:28:11;;;;;;;;;;;22.30;52.60;;;;;;5057473;28;986;-36
2022/01/05 08:30:38;;;;;;;;;;;22.30;52.70;;;;;;5058051;28;977;-36
2022/01/05 08:33:04;;;;;;;;;;;22.30;52.70;;;;;;5057919;28;1043;-36
2022/01/05 08:35:33;;;;;;;;;;;22.20;52.70;;;;;;5057376;28;1894;-37
2022/01/05 08:38:02;;;;;;;;;;;22.20;52.70;;;;;;5058421;28;1427;-36
2022/01/05 08:40:29;;;;;;;;;;;22.20;52.60;;;;;;5058215;28;1013;-36
2022/01/05 08:42:56;;;;;;;;;;;22.20;52.80;;;;;;5057341;28;1001;-37
2022/01/05 08:45:24;;;;;;;;;;;22.20;52.60;;;;;;5057563;28;1016;-36
2022/01/05 08:47:52;;;;;;;;;;;22.20;52.60;;;;;;5056513;28;1033;-37
2022/01/05 08:50:20;;;;;;;;;;;22.20;52.60;;;;;;5057485;28;1004;-35
2022/01/05 08:52:47;;;;;;;;;;;22.20;52.60;;;;;;5056884;28;1096;-37
2022/01/05 08:55:16;;;;;;;;;;;22.20;52.40;;;;;;5056515;28;1004;-36
2022/01/05 08:57:43;;;;;;;;;;;22.20;52.50;;;;;;5056349;28;1976;-36
2022/01/05 09:00:11;;;;;;;;;;;22.20;52.40;;;;;;5055762;28;1003;-35
2022/01/05 09:02:38;;;;;;;;;;;22.20;52.30;;;;;;5055767;28;940;-37
2022/01/05 09:05:05;;;;;;;;;;;22.20;52.50;;;;;;5056061;28;983;-37
2022/01/05 09:07:31;;;;;;;;;;;22.20;52.50;;;;;;5054689;28;1460;-36
2022/01/05 09:09:58;;;;;;;;;;;22.20;52.50;;;;;;5056302;28;954;-37
2022/01/05 09:12:26;;;;;;;;;;;22.10;52.50;;;;;;5055982;28;954;-37
2022/01/05 09:14:53;;;;;;;;;;;22.10;52.50;;;;;;5054636;28;987;-36
2022/01/05 09:17:20;;;;;;;;;;;22.10;52.50;;;;;;5056356;28;1980;-36
2022/01/05 09:19:47;;;;;;;;;;;22.10;52.50;;;;;;5054768;28;1001;-38
2022/01/05 09:22:13;;;;;;;;;;;22.10;52.70;;;;;;5056007;28;994;-36
2022/01/05 09:24:40;;;;;;;;;;;22.10;52.70;;;;;;5056411;28;992;-37
2022/01/05 09:27:07;;;;;;;;;;;22.10;52.50;;;;;;5056400;28;894;-36
2022/01/05 09:29:35;;;;;;;;;;;22.10;52.40;;;;;;5056591;28;929;-36
2022/01/05 09:32:08;;;;;;;;;;;22.10;52.30;;;;;;5056871;28;1002;-36
2022/01/05 09:34:35;;;;;;;;;;;22.10;52.50;;;;;;5056319;28;886;-37
2022/01/05 09:37:07;;;;;;;;;;;22.10;52.50;;;;;;5055454;28;1991;-36
2022/01/05 09:42:19;;;;;;;;;;;22.00;52.40;;;;;;5055670;28;621;-36
2022/01/05 09:44:48;;;;;;;;;;;22.00;52.40;;;;;;5056163;28;936;-36
2022/01/05 09:47:34;;;;;;;;;;;22.00;52.40;;;;;;5055043;28;997;-35
2022/01/05 09:50:03;;;;;;;;;;;22.00;52.40;;;;;;5055623;28;937;-38
2022/01/05 09:52:31;;;;;;;;;;;22.00;52.50;;;;;;5055851;28;957;-37
2022/01/05 09:54:58;;;;;;;;;;;22.00;52.40;;;;;;5056913;28;977;-36
2022/01/05 09:57:24;;;;;;;;;;;22.00;52.40;;;;;;5055814;28;1973;-36
2022/01/05 09:59:53;;;;;;;;;;;22.00;52.30;;;;;;5055821;28;993;-37
2022/01/05 10:02:20;;;;;;;;;;;22.00;52.20;;;;;;5055655;28;1098;-36
2022/01/05 10:04:47;;;;;;;;;;;22.00;52.20;;;;;;5056278;28;994;-36
2022/01/05 10:07:14;;;;;;;;;;;22.00;52.20;;;;;;5055776;28;1269;-36
2022/01/05 10:09:41;;;;;;;;;;;22.00;52.10;;;;;;5057015;28;977;-38
2022/01/05 10:12:09;;;;;;;;;;;22.00;52.10;;;;;;5056611;28;975;-38
2022/01/05 10:14:38;;;;;;;;;;;22.00;52.10;;;;;;5056741;28;1005;-37
2022/01/05 10:17:07;;;;;;;;;;;22.00;52.10;;;;;;5056313;28;1950;-37
2022/01/05 10:19:35;;;;;;;;;;;22.00;52.20;;;;;;5055557;28;956;-37
2022/01/05 10:22:02;;;;;;;;;;;22.00;52.00;;;;;;5055835;28;972;-38
2022/01/05 10:24:43;;;;;;;;;;;22.00;52.00;;;;;;5056111;28;979;-38
2022/01/05 10:27:15;;;;;;;;;;;22.00;52.10;;;;;;5054468;28;1017;-38
2022/01/05 10:29:50;;;;;;;;;;;22.00;51.90;;;;;;5055613;28;969;-38
2022/01/05 10:32:19;;;;;;;;;;;21.90;51.90;;;;;;5056252;28;957;-37
2022/01/05 10:34:58;;;;;;;;;;;21.90;51.90;;;;;;5055871;28;992;-38
2022/01/05 10:37:25;;;;;;;;;;;22.00;51.90;;;;;;5056332;28;1971;-37
2022/01/05 10:40:03;;;;;;;;;;;21.90;51.80;;;;;;5055627;28;940;-38
2022/01/05 10:42:31;;;;;;;;;;;21.90;51.80;;;;;;5056049;28;932;-39
2022/01/05 10:44:58;;;;;;;;;;;21.90;51.80;;;;;;5054912;28;922;-39
2022/01/05 10:47:27;;;;;;;;;;;22.00;51.50;;;;;;5054818;28;953;-38
2022/01/05 10:49:54;;;;;;;;;;;22.00;51.50;;;;;;5055801;28;1015;-38
2022/01/05 10:52:22;;;;;;;;;;;22.00;51.50;;;;;;5054737;28;933;-37
2022/01/05 10:54:49;;;;;;;;;;;21.90;51.50;;;;;;5055962;28;960;-37
2022/01/05 10:57:16;;;;;;;;;;;21.90;51.50;;;;;;5055515;28;1898;-37
2022/01/05 10:59:45;;;;;;;;;;;21.90;51.50;;;;;;5056510;28;1032;-38
2022/01/05 11:02:22;;;;;;;;;;;21.90;51.50;;;;;;5058984;28;993;-37
2022/01/05 11:04:50;;;;;;;;;;;21.90;51.60;;;;;;5059741;28;988;-40
2022/01/05 11:07:21;;;;;;;;;;;21.80;51.60;;;;;;5059390;28;1123;-39
2022/01/05 11:09:55;;;;;;;;;;;21.90;51.70;;;;;;5058711;28;998;-38
2022/01/05 11:12:30;;;;;;;;;;;21.80;51.60;;;;;;5059446;28;993;-37
2022/01/05 11:15:16;;;;;;;;;;;21.80;51.70;;;;;;5058473;28;981;-38
2022/01/05 11:18:04;;;;;;;;;;;21.80;51.60;;;;;;5058748;28;1906;-38
2022/01/05 11:20:32;;;;;;;;;;;21.80;51.70;;;;;;5058879;28;1513;-37
2022/01/05 11:22:59;;;;;;;;;;;21.80;51.60;;;;;;5058629;28;989;-37
2022/01/05 11:25:26;;;;;;;;;;;21.80;51.70;;;;;;5058207;28;1015;-37
2022/01/05 11:27:53;;;;;;;;;;;21.80;51.60;;;;;;5058672;28;969;-37
2022/01/05 11:30:19;;;;;;;;;;;21.80;51.60;;;;;;5058029;28;1006;-39
2022/01/05 11:32:46;;;;;;;;;;;21.80;51.50;;;;;;5057629;28;953;-39
2022/01/05 11:35:13;;;;;;;;;;;21.80;51.50;;;;;;5058096;28;985;-38
2022/01/05 11:37:42;;;;;;;;;;;21.80;51.50;;;;;;5057796;28;1906;-38
2022/01/05 11:40:09;;;;;;;;;;;21.80;51.40;;;;;;5058119;28;1056;-38
2022/01/05 11:42:36;;;;;;;;;;;21.80;51.30;;;;;;5058613;28;963;-39
2022/01/05 11:45:04;;;;;;;;;;;21.80;51.40;;;;;;5057981;28;1013;-39
2022/01/05 11:47:32;;;;;;;;;;;21.80;51.30;;;;;;5058452;28;994;-36
2022/01/05 11:50:14;;;;;;;;;;;21.80;51.30;;;;;;5058407;28;1037;-34
2022/01/05 11:52:55;;;;;;;;;;;21.80;51.30;;;;;;5058336;28;1240;-35
2022/01/05 11:55:22;;;;;;;;;;;21.80;51.30;;;;;;5058151;28;984;-36
2022/01/05 11:58:04;;;;;;;;;;;21.80;51.20;;;;;;5058151;28;1874;-35
2022/01/05 12:00:31;;;;;;;;;;;21.80;51.10;;;;;;5057913;28;1293;-36
2022/01/05 12:02:58;;;;;;;;;;;21.80;51.10;;;;;;5058386;28;941;-35
2022/01/05 12:05:24;;;;;;;;;;;21.70;51.10;;;;;;5057914;28;990;-35
2022/01/05 12:07:53;;;;;;;;;;;21.70;51.00;;;;;;5057288;28;1147;-36
2022/01/05 12:10:22;;;;;;;;;;;21.80;50.80;;;;;;5056262;28;1046;-35
2022/01/05 12:12:56;;;;;;;;;;;21.80;50.80;;;;;;5056938;28;937;-36
2022/01/05 12:15:46;;;;;;;;;;;21.80;50.90;;;;;;5057460;28;1023;-37
2022/01/05 12:18:13;;;;;;;;;;;21.80;50.80;;;;;;5057997;28;1981;-37
2022/01/05 12:20:41;;;;;;;;;;;21.80;50.70;;;;;;5058442;28;976;-37
2022/01/05 12:23:18;;;;;;;;;;;21.80;50.70;;;;;;5057945;28;961;-38
2022/01/05 12:26:04;;;;;;;;;;;21.80;50.70;;;;;;5058110;28;1019;-37
2022/01/05 12:28:32;;;;;;;;;;;21.70;50.90;;;;;;5057723;28;966;-37
2022/01/05 12:30:59;;;;;;;;;;;21.70;51.00;;;;;;5057857;28;932;-38
2022/01/05 12:33:26;;;;;;;;;;;21.70;51.00;;;;;;5057519;28;1120;-38
2022/01/05 12:35:55;;;;;;;;;;;21.70;51.10;;;;;;5057902;28;1040;-38
2022/01/05 12:38:32;;;;;;;;;;;21.70;51.20;;;;;;5057228;28;1902;-39
2022/01/05 12:40:59;;;;;;;;;;;21.70;51.10;;;;;;5057202;28;961;-38
2022/01/05 12:43:34;;;;;;;;;;;21.70;51.20;;;;;;5056998;28;1004;-38
2022/01/05 12:46:05;;;;;;;;;;;21.70;51.00;;;;;;5058090;28;956;-37
2022/01/05 12:48:50;;;;;;;;;;;21.80;50.80;;;;;;5057162;28;1008;-38
2022/01/05 12:51:31;;;;;;;;;;;21.80;50.70;;;;;;5044316;28;1924;-37
2022/01/05 12:54:00;;;;;;;;;;;21.80;50.70;;;;;;5057324;28;952;-38
2022/01/05 12:56:29;;;;;;;;;;;21.80;50.60;;;;;;5057199;28;978;-38
2022/01/05 12:58:56;;;;;;;;;;;21.80;50.60;;;;;;5057112;28;1976;-38
2022/01/05 13:01:26;;;;;;;;;;;21.80;50.70;;;;;;5056999;28;1109;-38
2022/01/05 13:03:53;;;;;;;;;;;21.80;50.30;;;;;;5057806;28;976;-38
2022/01/05 13:06:21;;;;;;;;;;;21.80;50.50;;;;;;5056968;28;1174;-38
2022/01/05 13:08:48;;;;;;;;;;;21.80;50.60;;;;;;5057195;28;1170;-36
2022/01/05 13:11:15;;;;;;;;;;;21.80;50.60;;;;;;5056842;28;1002;-36
2022/01/05 13:13:42;;;;;;;;;;;21.80;50.50;;;;;;5056828;28;937;-37
2022/01/05 13:16:09;;;;;;;;;;;21.70;50.50;;;;;;5056872;28;887;-39
2022/01/05 13:18:37;;;;;;;;;;;21.70;50.50;;;;;;5057529;28;1893;-38
2022/01/05 13:21:04;;;;;;;;;;;21.80;50.60;;;;;;5057077;28;938;-37
2022/01/05 13:23:31;;;;;;;;;;;21.80;50.60;;;;;;5056124;28;1009;-37
2022/01/05 13:26:07;;;;;;;;;;;21.80;50.40;;;;;;5055994;28;979;-37
2022/01/05 13:28:37;;;;;;;;;;;21.80;50.40;;;;;;5057172;28;933;-40
2022/01/05 13:31:08;;;;;;;;;;;21.80;50.50;;;;;;5056706;28;887;-37
2022/01/05 13:33:37;;;;;;;;;;;21.70;50.50;;;;;;5057075;28;1001;-38
2022/01/05 13:36:05;;;;;;;;;;;21.70;50.60;;;;;;5057171;28;1047;-38
2022/01/05 13:38:32;;;;;;;;;;;21.70;50.60;;;;;;5057034;28;1985;-37
2022/01/05 13:40:59;;;;;;;;;;;21.70;50.70;;;;;;5055716;28;1034;-38
2022/01/05 13:43:27;;;;;;;;;;;21.70;50.50;;;;;;5055708;28;949;-35
2022/01/05 13:45:54;;;;;;;;;;;21.70;50.60;;;;;;5055869;28;1010;-34
2022/01/05 13:48:23;;;;;;;;;;;21.70;50.60;;;;;;5056211;28;1797;-34
2022/01/05 13:50:51;;;;;;;;;;;21.70;50.50;;;;;;5055761;28;1000;-37
2022/01/05 13:53:19;;;;;;;;;;;21.70;50.40;;;;;;5056615;28;917;-35
2022/01/05 13:55:48;;;;;;;;;;;21.70;50.40;;;;;;5056305;28;973;-35
2022/01/05 13:58:18;;;;;;;;;;;21.70;50.50;;;;;;5056962;28;1907;-35
2022/01/05 14:00:46;;;;;;;;;;;21.70;50.40;;;;;;5056147;28;1008;-35
2022/01/05 14:03:29;;;;;;;;;;;21.80;50.40;;;;;;5056250;28;917;-38
2022/01/05 14:05:58;;;;;;;;;;;21.70;50.40;;;;;;5056930;28;1014;-36
2022/01/05 14:08:31;;;;;;;;;;;21.70;50.40;;;;;;5056079;28;1459;-36
2022/01/05 14:11:09;;;;;;;;;;;21.70;50.30;;;;;;5056524;28;1010;-37
2022/01/05 14:13:42;;;;;;;;;;;21.70;50.50;;;;;;5055886;28;1014;-36
2022/01/05 14:16:15;;;;;;;;;;;21.70;50.50;;;;;;5055561;28;998;-35
2022/01/05 14:18:45;;;;;;;;;;;21.70;50.50;;;;;;5056677;28;1894;-36
2022/01/05 14:21:13;;;;;;;;;;;21.70;50.30;;;;;;5055848;28;1017;-38
2022/01/05 14:23:41;;;;;;;;;;;21.70;50.50;;;;;;5056162;28;1026;-38
2022/01/05 14:26:07;;;;;;;;;;;21.60;50.50;;;;;;5055799;28;1048;-39
2022/01/05 14:28:35;;;;;;;;;;;21.70;50.40;;;;;;5055631;28;1036;-39
2022/01/05 14:31:03;;;;;;;;;;;21.70;50.40;;;;;;5055040;28;918;-39
2022/01/05 14:33:37;;;;;;;;;;;21.70;50.60;;;;;;5055919;28;957;-38
2022/01/05 14:39:02;;;;;;;;;;;21.70;50.50;;;;;;5113405;27;1355;-34
2022/01/05 14:41:36;;;;;;;;;;;21.70;50.30;;;;;;5114544;28;1859;-35
2022/01/05 14:44:04;;;;;;;;;;;21.60;50.70;;;;;;5114278;28;1055;-33
2022/01/05 14:46:31;;;;;;;;;;;21.60;50.50;;;;;;5114481;28;1027;-33
2022/01/05 14:48:58;;;;;;;;;;;21.60;50.60;;;;;;5114131;28;1022;-33
2022/01/05 14:51:25;;;;;;;;;;;21.60;50.50;;;;;;5113341;28;1059;-33